Aeroporto :
LOGIN :

Iscrizione | Disclaimer

   EN    FR    IT 

 










Sommario :    VFR   VFR Marginale   IFR   IFR Intensivo   IFR Molto Intensivo
Visibilità : 
Base nubi : 
>= 8 km
>= 3000ft
5 / 8 km
1000 / 3000 ft
1500m / 5 km
500 / 1000 ft
800 / 1500m
200 / 500 ft
< 800m
< 200 ft
Simboli :   Temporali  Nebbia  Neve Forte  Precipitazioni Forti  Vento > 20 kt
SIGMETs :   Varie  Temporali  Ghiacco  Turbolenza  Onda orograficha  Ceneri Vulcaniche






- Altitudine del aeroporto : 1276 ft
- Codice IATA : STR


EDDS - Stuttgart

ULTIMO METAR :
  • 290750Z AUTO 25003KT 9999 BKN007 06/06 Q1015 NOSIG

METARs OBSOLETI :
  • 290720Z AUTO 24003KT 9999 OVC007 06/06 Q1015 NOSIG
  • 290650Z AUTO 25004KT 8000 OVC008 06/06 Q1014 NOSIG
  • 290620Z AUTO 25005KT 4500 -DZ BR BKN009 OVC014 06/06 Q1014 REDZ NOSIG
  • 290550Z AUTO 25004KT 220V280 9999 OVC009 06/05 Q1014 NOSIG

TAF AMD TAF EDDS
Valido dal 29 a 06 ore il 30 a 06 ore UTC


290617Z 2906/3006 VRB03KT 9999 BKN012
TEMPO 2906/2912 4000 -DZ BR BKN008
BECMG 2909/2912 32005KT
TEMPO 2920/3006 3000 -RADZ BR BKN004



MetMap, La meteo Aeronautica in un colpo d'occhio ! - Copyright ORBIFLY Dicembre 2007 - Disclaimer

ORBIFLY MET'MAP TEAM :

Programmazione e sviluppo : Alexandra Zaïnal
Concezione : Baudouin d'Aumeries
Supporto tecnico e logistico : Manuel Goepfert
Aiuto : Marc-Olivier Méhu
Aiuto per la traduzione : Arnaldo La Scala




FONTI E CREDITI :

   NOAA